Time;durP1;ratioP1;P1;durP2;ratioP2;P2;SDS_P1;SDS_P2;PMS_P1;PMS_P2;Temp;Humidity;BMP_temperature;BMP_pressure;BME280_temperature;BME280_humidity;BME280_pressure;Samples;Min_cycle;Max_cycle;Signal;HPM_P1;HPM_P2
2022/04/19 00:00:38;;;;;;;2.75;2.00;;;;;;;4.63;65.64;99041.81;4979216;28;20105;-88
2022/04/19 00:03:04;;;;;;;4.57;1.95;;;;;;;4.72;65.12;99034.25;4978756;28;20037;-88
2022/04/19 00:05:32;;;;;;;2.90;2.00;;;;;;;4.71;66.41;99040.63;4963157;28;20030;-89
2022/04/19 00:07:58;;;;;;;2.25;1.80;;;;;;;4.60;65.73;99037.75;4978774;28;20026;-88
2022/04/19 00:10:26;;;;;;;3.13;2.22;;;;;;;4.49;66.50;99038.63;4978664;28;20469;-90
2022/04/19 00:12:51;;;;;;;5.00;1.92;;;;;;;4.50;65.94;99036.75;4947550;28;20536;-90
2022/04/19 00:15:17;;;;;;;3.08;2.28;;;;;;;4.53;66.15;99049.63;4947153;28;20030;-89
2022/04/19 00:17:43;;;;;;;3.00;2.13;;;;;;;4.51;67.07;99046.38;4962379;28;20031;-88
2022/04/19 00:20:09;;;;;;;3.22;2.20;;;;;;;4.42;65.81;99037.94;4978143;28;20027;-87
2022/04/19 00:22:34;;;;;;;2.90;2.20;;;;;;;4.61;64.93;99023.38;4977851;28;20089;-88
2022/04/19 00:25:00;;;;;;;3.45;2.30;;;;;;;4.56;66.72;99027.81;4978697;28;20437;-88
2022/04/19 00:27:25;;;;;;;3.70;2.30;;;;;;;4.53;66.05;99023.75;4978732;28;20026;-87
2022/04/19 00:29:53;;;;;;;2.78;2.17;;;;;;;4.47;66.89;99026.56;4977797;28;20555;-88
2022/04/19 00:32:19;;;;;;;2.70;1.90;;;;;;;4.49;66.34;99035.16;4962050;28;20015;-89
2022/04/19 00:34:46;;;;;;;5.32;2.80;;;;;;;4.58;66.24;99020.38;4962227;28;20019;-88
2022/04/19 00:37:13;;;;;;;5.30;2.85;;;;;;;4.53;67.44;99029.09;4978052;28;20046;-88
2022/04/19 00:39:38;;;;;;;4.90;3.10;;;;;;;4.50;67.57;99021.56;4977848;28;20022;-88
2022/04/19 00:42:04;;;;;;;6.72;3.10;;;;;;;4.58;67.51;99023.84;4977588;28;20019;-88
2022/04/19 00:44:29;;;;;;;4.88;2.88;;;;;;;4.58;68.33;99029.19;4962301;28;20026;-88
2022/04/19 00:46:55;;;;;;;6.13;3.38;;;;;;;4.35;68.34;99016.75;4962368;28;20476;-88
2022/04/19 00:49:20;;;;;;;6.32;3.15;;;;;;;4.40;69.05;99021.34;4961413;28;20035;-89
2022/04/19 00:51:46;;;;;;;4.93;3.10;;;;;;;4.51;67.70;99017.88;4946407;28;20053;-89
2022/04/19 00:54:13;;;;;;;7.28;3.22;;;;;;;4.39;68.82;99020.56;4962333;28;20389;-89
2022/04/19 00:56:40;;;;;;;4.80;3.25;;;;;;;4.40;68.90;99019.53;4978088;28;20042;-89
2022/04/19 00:59:05;;;;;;;5.53;2.80;;;;;;;4.50;68.14;99002.91;4981811;28;20033;-88
2022/04/19 01:01:31;;;;;;;4.68;2.85;;;;;;;4.73;67.43;99012.69;4966314;28;20408;-89
2022/04/19 01:03:58;;;;;;;4.35;2.85;;;;;;;4.57;68.23;99024.91;4981844;28;20033;-88
2022/04/19 01:06:23;;;;;;;4.10;2.67;;;;;;;4.45;68.53;99024.94;4982442;28;20022;-88
2022/04/19 01:08:49;;;;;;;4.00;2.80;;;;;;;4.72;67.53;99031.59;4965164;28;20022;-85
2022/04/19 01:14:02;;;;;;;4.53;2.67;;;;;;;4.52;68.48;99022.13;4971026;28;20503;-88
2022/04/19 01:16:27;;;;;;;4.50;2.45;;;;;;;4.57;67.43;99032.09;4982670;28;20105;-89
2022/04/19 01:18:53;;;;;;;5.05;2.72;;;;;;;4.41;66.99;99020.31;4982749;28;20126;-88
2022/04/19 01:21:19;;;;;;;3.20;2.50;;;;;;;4.47;67.06;99019.38;4981552;28;20046;-86
2022/04/19 01:23:45;;;;;;;7.68;2.97;;;;;;;4.53;67.16;99022.97;4981330;28;20040;-88
2022/04/19 01:26:10;;;;;;;6.38;2.67;;;;;;;4.57;68.20;99024.09;4966039;28;20069;-88
2022/04/19 01:28:36;;;;;;;3.22;2.40;;;;;;;4.55;67.43;99027.00;4984837;28;20508;-88
2022/04/19 01:31:01;;;;;;;3.40;2.63;;;;;;;4.63;67.26;99025.81;5000908;28;20029;-88
2022/04/19 01:33:27;;;;;;;5.70;2.65;;;;;;;4.68;66.93;99011.78;4984107;28;20026;-88
2022/04/19 01:35:53;;;;;;;6.93;3.00;;;;;;;4.74;66.46;99013.50;4985288;28;20030;-89
2022/04/19 01:38:18;;;;;;;4.85;3.15;;;;;;;4.71;67.30;99008.63;4985120;28;20080;-89
2022/04/19 01:40:44;;;;;;;3.47;2.17;;;;;;;4.72;66.43;99010.25;4984519;28;20029;-88
2022/04/19 01:43:09;;;;;;;3.63;2.70;;;;;;;4.74;66.40;99013.50;4984393;28;20085;-88
2022/04/19 01:45:35;;;;;;;3.17;2.30;;;;;;;4.63;67.69;99025.81;4984415;28;20034;-89
2022/04/19 01:48:00;;;;;;;5.55;2.15;;;;;;;4.62;67.52;99022.31;4984685;28;20034;-88
2022/04/19 01:50:27;;;;;;;4.28;2.25;;;;;;;4.54;68.32;99020.03;5000984;28;20032;-89
2022/04/19 01:52:53;;;;;;;5.07;2.78;;;;;;;4.60;67.71;99019.09;4983919;28;20053;-89
2022/04/19 01:55:19;;;;;;;7.90;2.50;;;;;;;4.50;68.05;99020.75;4984363;28;20121;-88
2022/04/19 01:57:47;;;;;;;7.10;2.20;;;;;;;4.53;66.70;99022.97;4984661;28;20448;-88
2022/04/19 02:00:13;;;;;;;8.35;2.20;;;;;;;4.52;66.05;99010.66;5000718;28;20021;-89
2022/04/19 02:02:39;;;;;;;4.80;2.58;;;;;;;4.35;67.68;99014.06;4983830;28;20026;-88
2022/04/19 02:05:05;;;;;;;4.70;2.30;;;;;;;4.41;67.49;99018.47;4968153;28;20025;-88
2022/04/19 02:07:33;;;;;;;4.90;2.60;;;;;;;4.54;67.16;99020.03;4984377;28;20058;-88
2022/04/19 02:10:02;;;;;;;4.45;2.30;;;;;;;4.34;67.27;99014.34;4967161;28;20048;-89
2022/04/19 02:12:28;;;;;;;4.68;2.63;;;;;;;4.39;67.49;99006.44;4984373;28;20524;-86
2022/04/19 02:14:53;;;;;;;4.43;2.70;;;;;;;4.33;68.56;99015.38;4967316;28;20101;-88
2022/04/19 02:17:20;;;;;;;5.82;2.83;;;;;;;4.43;68.67;99013.72;4983945;28;20025;-88
2022/04/19 02:19:47;;;;;;;7.10;2.58;;;;;;;4.62;67.21;99021.53;4984216;28;20030;-89
2022/04/19 02:22:12;;;;;;;4.95;2.60;;;;;;;4.68;67.14;99023.25;4968675;28;20014;-90
2022/04/19 02:24:38;;;;;;;4.07;2.42;;;;;;;4.63;67.32;99017.81;5000795;28;20029;-92
2022/04/19 02:27:05;;;;;;;5.65;2.80;;;;;;;4.62;67.86;99018.84;4986576;28;20085;-92
2022/04/19 02:29:32;;;;;;;4.20;2.85;;;;;;;4.47;65.82;99013.25;5001488;28;20420;-92
2022/04/19 02:31:58;;;;;;;3.55;2.60;;;;;;;4.44;68.27;99015.34;4986531;28;20034;-92
2022/04/19 02:34:23;;;;;;;3.83;2.85;;;;;;;4.41;68.67;99017.66;4969979;28;20026;-92
2022/04/19 02:36:49;;;;;;;9.32;2.70;;;;;;;4.47;67.87;99010.59;5002251;28;20022;-91
2022/04/19 02:39:14;;;;;;;4.53;2.65;;;;;;;4.46;67.77;99020.41;4968842;28;20488;-89
2022/04/19 02:41:40;;;;;;;2.50;2.17;;;;;;;4.43;67.56;99018.25;4984632;28;20473;-91
2022/04/19 02:44:08;;;;;;;5.53;2.40;;;;;;;4.45;67.42;99021.47;4985508;28;20101;-91
2022/04/19 02:46:35;;;;;;;2.67;1.88;;;;;;;4.62;65.84;99011.66;4969296;28;20551;-91
2022/04/19 02:49:04;;;;;;;3.25;2.40;;;;;;;4.75;64.17;99009.75;4969178;28;20040;-89
2022/04/19 02:51:30;;;;;;;3.90;2.70;;;;;;;4.52;67.03;99018.66;4984247;28;20022;-91
2022/04/19 02:53:55;;;;;;;3.20;2.00;;;;;;;4.55;67.14;99015.53;4985338;28;20037;-92
2022/04/19 02:56:20;;;;;;;3.70;2.30;;;;;;;4.54;66.73;99022.72;4985087;28;20053;-91
2022/04/19 02:58:46;;;;;;;3.60;2.22;;;;;;;4.58;67.25;99033.72;4985506;28;20021;-92
2022/04/19 03:01:12;;;;;;;5.07;2.50;;;;;;;4.37;68.04;99019.97;4983745;28;20021;-92
2022/04/19 03:03:37;;;;;;;3.88;2.80;;;;;;;4.51;67.50;99025.06;4985812;28;20113;-91
2022/04/19 03:06:03;;;;;;;3.95;2.50;;;;;;;4.49;68.26;99043.16;4985186;28;20030;-91
2022/04/19 03:08:28;;;;;;;3.55;2.40;;;;;;;4.54;67.18;99043.22;4985365;28;20029;-91
2022/04/19 03:10:55;;;;;;;4.55;2.33;;;;;;;4.66;65.85;99039.47;4985117;28;20052;-90
2022/04/19 03:13:21;;;;;;;4.63;2.20;;;;;;;4.71;65.36;99056.63;4985571;28;20024;-92
2022/04/19 03:15:47;;;;;;;4.20;2.42;;;;;;;4.60;64.12;99048.41;4985580;28;20022;-90
2022/04/19 03:18:13;;;;;;;3.00;1.77;;;;;;;4.71;63.84;99049.44;4985374;28;20519;-90
2022/04/19 03:20:38;;;;;;;2.97;2.30;;;;;;;4.80;62.89;99056.00;4984112;28;20032;-91
2022/04/19 03:28:32;;;;;;;3.92;2.60;;;;;;;4.74;65.45;99053.50;5003903;28;20060;-92
2022/04/19 03:30:57;;;;;;;4.18;2.45;;;;;;;4.76;65.32;99054.88;4985211;28;20025;-92
2022/04/19 03:33:23;;;;;;;4.50;2.72;;;;;;;4.65;65.51;99053.88;5001027;28;20402;-92
2022/04/19 03:35:48;;;;;;;9.02;3.88;;;;;;;4.71;65.62;99057.44;4999659;28;20032;-92
2022/04/19 03:38:14;;;;;;;5.20;3.20;;;;;;;4.89;64.28;99069.78;4967921;28;20112;-91
2022/04/19 03:40:39;;;;;;;3.60;2.80;;;;;;;5.00;63.45;99060.91;5000670;28;20022;-91
2022/04/19 03:43:07;;;;;;;7.13;3.33;;;;;;;5.04;63.54;99069.22;4983738;28;20030;-91
2022/04/19 03:45:32;;;;;;;6.18;3.85;;;;;;;4.90;64.43;99070.56;4999681;28;20464;-92
2022/04/19 03:48:00;;;;;;;5.93;3.83;;;;;;;5.02;63.39;99063.31;4983442;28;20029;-92
2022/04/19 03:50:25;;;;;;;8.15;3.95;;;;;;;5.04;63.35;99063.91;4969018;28;20041;-92
2022/04/19 03:52:52;;;;;;;7.97;4.28;;;;;;;5.15;63.16;99065.72;4983954;28;20014;-92
2022/04/19 03:55:17;;;;;;;5.95;3.95;;;;;;;5.09;63.01;99081.88;4967291;28;20025;-88
2022/04/19 03:57:42;;;;;;;6.50;4.10;;;;;;;5.17;63.12;99068.16;4982806;28;20025;-92
2022/04/19 04:00:10;;;;;;;7.53;3.50;;;;;;;5.32;61.68;99081.75;4999627;28;20022;-91
2022/04/19 04:02:35;;;;;;;7.97;2.60;;;;;;;5.33;60.81;99066.53;4983608;28;20025;-91
2022/04/19 04:05:03;;;;;;;3.47;2.50;;;;;;;5.34;60.80;99070.84;4983487;28;20037;-91
2022/04/19 04:07:28;;;;;;;6.10;3.33;;;;;;;5.15;66.47;99078.25;4982766;28;20037;-90
2022/04/19 04:09:54;;;;;;;10.00;4.32;;;;;;;5.00;67.13;99081.44;4998708;28;20017;-91
2022/04/19 04:12:21;;;;;;;8.10;4.03;;;;;;;5.14;67.11;99095.31;4984571;28;20029;-89
2022/04/19 04:14:48;;;;;;;10.68;4.28;;;;;;;4.91;67.90;99085.53;5016783;28;20026;-92
2022/04/19 04:17:14;;;;;;;8.38;4.25;;;;;;;4.81;68.73;99086.94;4966850;28;20022;-91
2022/04/19 04:19:40;;;;;;;15.90;4.95;;;;;;;4.77;68.34;99085.00;4965902;28;20055;-92
2022/04/19 04:22:06;;;;;;;13.63;4.15;;;;;;;4.87;67.46;99085.19;4965444;28;20490;-91
2022/04/19 04:24:32;;;;;;;5.85;3.38;;;;;;;5.01;67.00;99085.72;4981430;28;20026;-92
2022/04/19 04:26:57;;;;;;;7.03;2.92;;;;;;;5.18;65.35;99099.91;4947486;28;20105;-93
2022/04/19 04:29:22;;;;;;;8.20;3.10;;;;;;;5.17;65.25;99084.16;4965618;28;20034;-93
2022/04/19 04:31:48;;;;;;;9.23;3.60;;;;;;;5.06;66.91;99091.97;4964751;28;20118;-93
2022/04/19 04:34:13;;;;;;;10.80;3.05;;;;;;;4.85;66.92;99087.28;4970031;28;20106;-91
2022/04/19 04:36:41;;;;;;;8.68;2.75;;;;;;;4.86;66.88;99081.72;4998608;28;20041;-91
2022/04/19 04:39:07;;;;;;;11.38;3.00;;;;;;;4.94;67.93;99101.88;4961941;28;20071;-91
2022/04/19 04:41:32;;;;;;;6.55;3.28;;;;;;;4.84;67.88;99094.50;4980793;28;20025;-92
2022/04/19 04:43:58;;;;;;;8.82;4.15;;;;;;;5.10;68.01;99118.97;4984953;28;20037;-93
2022/04/19 04:51:51;;;;;;;10.57;7.80;;;;;;;5.00;68.97;99097.44;4989730;28;20092;-92
2022/04/19 04:54:18;;;;;;;16.40;9.38;;;;;;;5.18;68.63;99109.78;4968604;28;20034;-92
2022/04/19 04:56:43;;;;;;;21.10;15.60;;;;;;;5.09;68.59;99082.69;4983419;28;20026;-92
2022/04/19 04:59:09;;;;;;;9.82;5.63;;;;;;;5.26;67.52;99128.09;4969440;28;20052;-91
2022/04/19 05:01:37;;;;;;;12.63;5.80;;;;;;;5.00;68.30;99108.94;5013338;28;20033;-92
2022/04/19 05:04:02;;;;;;;7.90;5.32;;;;;;;4.98;69.00;99115.53;4986850;28;20069;-92
2022/04/19 05:06:28;;;;;;;65.22;34.75;;;;;;;5.14;69.27;99114.78;4984519;28;20564;-93
2022/04/19 05:08:54;;;;;;;16.40;9.75;;;;;;;5.15;70.15;99121.75;4969570;28;20038;-92
2022/04/19 05:11:19;;;;;;;8.15;5.47;;;;;;;5.25;69.46;99097.91;4970782;28;20049;-92
2022/04/19 05:13:45;;;;;;;10.65;4.50;;;;;;;5.33;66.31;99101.22;4987385;28;20062;-93
2022/04/19 05:16:10;;;;;;;9.38;5.63;;;;;;;5.49;67.83;99107.66;4988829;28;20033;-83
2022/04/19 05:18:36;;;;;;;11.82;5.93;;;;;;;5.66;66.75;99114.63;4994658;28;20030;-85
2022/04/19 05:21:02;;;;;;;6.72;4.18;;;;;;;5.77;65.27;99114.78;5010512;28;20358;-83
2022/04/19 05:23:27;;;;;;;7.70;3.72;;;;;;;5.91;64.26;99118.72;4978801;28;20105;-85
2022/04/19 05:25:53;;;;;;;10.30;4.20;;;;;;;5.99;64.67;99125.56;4990068;28;20480;-91
2022/04/19 05:28:22;;;;;;;5.85;4.25;;;;;;;6.03;65.32;99126.69;4985672;28;20030;-93
2022/04/19 05:30:47;;;;;;;69.95;9.27;;;;;;;5.91;64.58;99126.75;4971738;28;20121;-91
2022/04/19 05:33:13;;;;;;;8.00;3.85;;;;;;;6.21;64.59;99152.38;4974418;28;20116;-94
2022/04/19 05:35:39;;;;;;;5.30;3.38;;;;;;;6.32;63.36;99151.44;4973734;28;20412;-93
2022/04/19 05:38:05;;;;;;;8.18;4.30;;;;;;;6.31;64.70;99155.19;4990818;28;20037;-91
2022/04/19 05:40:35;;;;;;;6.53;4.35;;;;;;;5.96;65.91;99139.44;4974362;28;20061;-89
2022/04/19 05:43:01;;;;;;;5.63;3.78;;;;;;;6.08;65.54;99134.81;4972067;28;20034;-93
2022/04/19 05:45:28;;;;;;;6.25;3.38;;;;;;;6.05;64.67;99140.63;5009228;28;20065;-95
2022/04/19 05:48:19;;;;;;;5.30;3.25;;;;;;;6.16;64.77;99166.44;5025428;28;20480;-93
2022/04/19 05:50:45;;;;;;;37.15;28.92;;;;;;;6.17;65.57;99137.88;4994260;28;20034;-92
2022/04/19 05:53:11;;;;;;;9.35;6.15;;;;;;;6.11;63.14;99134.31;4975334;28;20021;-93
2022/04/19 05:55:36;;;;;;;55.67;45.47;;;;;;;6.18;64.77;99142.16;4973934;28;20060;-93
2022/04/19 05:58:02;;;;;;;6.05;4.57;;;;;;;6.46;62.95;99149.25;4975166;28;20041;-93
2022/04/19 06:00:27;;;;;;;9.55;3.55;;;;;;;6.36;63.01;99157.13;4977775;28;20030;-93
2022/04/19 06:05:45;;;;;;;3.85;3.03;;;;;;;6.53;61.29;99160.56;5014831;28;20125;-92
2022/04/19 06:08:10;;;;;;;4.88;3.08;;;;;;;6.61;59.16;99144.06;4991893;28;20058;-90
2022/04/19 06:11:01;;;;;;;5.68;3.47;;;;;;;6.55;60.67;99147.75;5002718;28;20057;-92
2022/04/19 06:13:27;;;;;;;5.45;3.53;;;;;;;6.30;61.24;99136.72;4980415;28;20053;-92
2022/04/19 06:15:53;;;;;;;5.20;3.38;;;;;;;6.39;61.05;99135.22;4976706;28;20029;-90
2022/04/19 06:18:19;;;;;;;6.43;2.97;;;;;;;6.49;60.99;99159.44;4976387;28;20026;-92
2022/04/19 06:20:44;;;;;;;7.10;4.30;;;;;;;6.50;60.65;99130.84;4958622;28;20025;-93
2022/04/19 06:23:16;;;;;;;6.00;3.40;;;;;;;6.73;60.13;99153.88;4961454;28;20022;-95
2022/04/19 06:25:45;;;;;;;7.10;3.67;;;;;;;6.95;60.94;99180.63;4992637;28;20479;-92
2022/04/19 06:28:10;;;;;;;4.97;3.70;;;;;;;6.39;61.49;99145.91;5007156;28;20084;-92
2022/04/19 06:30:39;;;;;;;6.40;3.47;;;;;;;6.84;61.42;99163.63;4974528;28;20042;-92
2022/04/19 06:33:04;;;;;;;4.75;3.42;;;;;;;6.97;59.98;99167.78;4978567;28;20022;-93
2022/04/19 06:35:31;;;;;;;5.30;3.33;;;;;;;6.95;63.42;99146.66;4996731;28;20021;-91
2022/04/19 06:38:09;;;;;;;5.53;4.05;;;;;;;7.18;62.86;99182.22;5005274;28;20123;-93
2022/04/19 06:40:35;;;;;;;6.43;3.60;;;;;;;7.21;61.99;99176.38;5003864;28;20056;-94
2022/04/19 06:43:02;;;;;;;6.88;3.72;;;;;;;7.21;61.99;99168.34;5004865;28;20023;-91
2022/04/19 06:45:40;;;;;;;12.45;4.10;;;;;;;7.44;62.84;99186.00;4972915;28;20027;-94
2022/04/19 06:48:09;;;;;;;15.10;6.07;;;;;;;7.40;62.58;99150.06;5004381;28;20077;-92
2022/04/19 06:50:50;;;;;;;5.22;4.15;;;;;;;7.35;61.53;99158.06;4955108;28;20061;-92
2022/04/19 06:53:18;;;;;;;6.78;4.68;;;;;;;7.33;61.14;99162.84;4971380;28;20081;-93
2022/04/19 06:55:50;;;;;;;6.25;4.43;;;;;;;7.65;60.45;99193.16;4975521;28;20041;-92
2022/04/19 06:58:15;;;;;;;;;;;;;;;7.51;59.79;99188.47;4990736;28;20523;-91
2022/04/19 07:00:55;;;;;;;7.97;6.00;;;;;;;7.45;61.44;99169.69;5006265;28;19919;-91
2022/04/19 07:03:30;;;;;;;10.68;7.65;;;;;;;7.48;62.88;99195.13;4972573;28;20026;-93
2022/04/19 07:05:59;;;;;;;14.57;6.88;;;;;;;7.53;60.76;99168.38;4974338;28;20124;-92
2022/04/19 07:08:24;;;;;;;5.35;4.10;;;;;;;7.71;60.63;99183.31;4992221;28;20385;-93
2022/04/19 07:10:51;;;;;;;7.18;4.75;;;;;;;7.54;60.58;99153.16;4993021;28;20176;-94
2022/04/19 07:13:35;;;;;;;8.20;7.13;;;;;;;7.43;59.02;99169.13;5006038;28;20037;-93
2022/04/19 07:16:02;;;;;;;8.73;6.43;;;;;;;7.71;59.55;99164.53;4991262;28;20034;-95
2022/04/19 07:18:35;;;;;;;11.00;10.02;;;;;;;7.70;59.26;99189.75;4987321;28;20041;-91
2022/04/19 07:26:40;;;;;;;6.15;4.57;;;;;;;7.62;61.49;99180.28;5001933;28;20072;-93
2022/04/19 07:29:12;;;;;;;5.93;4.40;;;;;;;7.66;59.19;99176.03;4982349;28;20113;-93
2022/04/19 07:31:42;;;;;;;6.35;4.28;;;;;;;7.68;60.19;99190.00;4954493;28;20030;-94
2022/04/19 07:34:12;;;;;;;6.55;4.65;;;;;;;7.71;60.34;99163.75;4954268;28;20034;-95
2022/04/19 07:36:46;;;;;;;14.18;11.93;;;;;;;8.00;61.78;99185.69;4986272;28;20088;-92
2022/04/19 07:39:12;;;;;;;5.78;4.47;;;;;;;8.08;60.60;99177.19;4970275;28;20126;-92
2022/04/19 07:41:38;;;;;;;5.72;3.72;;;;;;;7.75;60.51;99184.41;4968327;28;20121;-93
2022/04/19 07:44:04;;;;;;;5.80;4.28;;;;;;;7.66;62.11;99176.03;4967479;28;20034;-93
2022/04/19 07:46:32;;;;;;;6.68;5.15;;;;;;;7.78;60.12;99183.09;4954588;28;20037;-93
2022/04/19 07:48:57;;;;;;;9.48;5.90;;;;;;;7.68;61.09;99190.00;4957510;28;20027;-93
2022/04/19 07:51:24;;;;;;;14.85;9.18;;;;;;;7.25;60.38;99151.50;4972212;28;20488;-90
2022/04/19 07:53:52;;;;;;;10.32;4.05;;;;;;;7.36;61.77;99176.53;4957770;28;20034;-92
2022/04/19 07:56:21;;;;;;;11.73;9.57;;;;;;;7.00;62.71;99178.00;4967450;28;20165;-93
2022/04/19 07:58:48;;;;;;;135.48;92.47;;;;;;;7.46;60.04;99192.72;4953580;28;20171;-91
2022/04/19 08:01:14;;;;;;;30.13;21.70;;;;;;;7.63;58.34;99175.72;4965491;28;20035;-91
2022/04/19 08:03:40;;;;;;;8.30;5.63;;;;;;;7.68;61.62;99176.59;4933334;28;20038;-93
2022/04/19 08:06:09;;;;;;;10.25;6.78;;;;;;;7.66;60.62;99172.56;4960216;28;20489;-89
2022/04/19 08:08:42;;;;;;;12.60;9.20;;;;;;;7.64;59.05;99158.59;4952004;28;20106;-90
2022/04/19 08:11:08;;;;;;;6.07;4.30;;;;;;;7.88;57.98;99161.72;4965373;28;20054;-93
2022/04/19 08:13:34;;;;;;;6.55;4.80;;;;;;;8.33;58.21;99179.22;4965724;28;20042;-91
2022/04/19 08:16:13;;;;;;;5.35;4.15;;;;;;;8.08;57.87;99164.56;4957853;28;20086;-89
2022/04/19 08:18:40;;;;;;;7.82;5.47;;;;;;;8.31;57.38;99170.63;4936611;28;20053;-90
2022/04/19 08:21:05;;;;;;;6.13;4.30;;;;;;;8.37;57.48;99150.81;4949105;28;20493;-93
2022/04/19 08:23:32;;;;;;;5.35;4.45;;;;;;;8.38;61.73;99167.72;4987059;28;20050;-92
2022/04/19 08:25:58;;;;;;;7.97;4.57;;;;;;;8.38;59.64;99155.09;4978224;28;20030;-90
2022/04/19 08:28:25;;;;;;;11.38;4.20;;;;;;;8.51;58.40;99167.31;4935848;28;20042;-94
2022/04/19 08:30:53;;;;;;;8.20;4.60;;;;;;;7.98;57.42;99153.78;4994012;28;20029;-91
2022/04/19 08:33:18;;;;;;;6.53;3.63;;;;;;;8.19;56.84;99162.78;4974996;28;20153;-94
2022/04/19 08:35:43;;;;;;;10.07;5.90;;;;;;;8.19;57.92;99154.72;4972307;28;20032;-92
2022/04/19 08:38:10;;;;;;;5.88;3.92;;;;;;;8.08;57.79;99161.09;4973231;28;20057;-92
2022/04/19 08:40:36;;;;;;;6.53;4.22;;;;;;;7.85;58.55;99159.56;4989610;28;20073;-91
2022/04/19 08:43:02;;;;;;;5.63;3.72;;;;;;;7.93;58.69;99175.19;4970512;28;20026;-92
2022/04/19 08:45:28;;;;;;;6.80;3.50;;;;;;;7.75;58.44;99154.13;4988527;28;20044;-91
2022/04/19 08:47:57;;;;;;;154.40;69.20;;;;;;;7.95;58.97;99186.47;4971811;28;20038;-95
2022/04/19 08:50:22;;;;;;;6.35;4.45;;;;;;;8.07;59.21;99175.56;4980454;28;20038;-94
2022/04/19 08:58:26;;;;;;;4.00;3.50;;;;;;;8.13;58.16;99158.44;5009293;28;20101;-92
2022/04/19 09:00:51;;;;;;;4.85;3.88;;;;;;;8.28;56.35;99160.44;5004247;28;20050;-92
2022/04/19 09:03:19;;;;;;;5.95;4.47;;;;;;;8.42;57.62;99160.81;4974950;28;20023;-90
2022/04/19 09:05:53;;;;;;;6.97;4.03;;;;;;;8.29;59.21;99162.03;4984050;28;20030;-90
2022/04/19 09:08:22;;;;;;;4.85;3.22;;;;;;;8.43;55.42;99167.81;5010921;28;20040;-93
2022/04/19 09:10:50;;;;;;;5.80;3.85;;;;;;;8.48;57.05;99159.75;4976837;28;20101;-91
2022/04/19 09:13:26;;;;;;;7.60;5.38;;;;;;;8.81;58.09;99180.06;4970009;28;20027;-93
2022/04/19 09:16:04;;;;;;;5.93;4.50;;;;;;;8.69;59.55;99150.78;4976097;28;20404;-93
2022/04/19 09:18:34;;;;;;;6.43;3.38;;;;;;;8.50;59.38;99136.16;4972379;28;20032;-90
2022/04/19 09:23:17;;;;;;;6.28;4.05;;;;;;;8.79;57.21;99147.31;5078906;27;1410632;-93
2022/04/19 09:25:43;;;;;;;10.73;7.03;;;;;;;8.86;57.74;99163.16;5085669;28;20035;-92
2022/04/19 09:28:19;;;;;;;8.00;6.25;;;;;;;8.96;57.03;99160.53;5069924;28;20028;-91
2022/04/19 09:30:45;;;;;;;6.20;4.22;;;;;;;9.13;57.93;99160.34;5070033;28;20035;-93
2022/04/19 09:33:14;;;;;;;5.97;4.60;;;;;;;9.08;58.87;99138.81;5070682;28;20023;-92
2022/04/19 09:35:54;;;;;;;5.22;4.40;;;;;;;9.30;56.88;99142.09;5070777;28;20110;-94
2022/04/19 09:38:39;;;;;;;7.53;4.65;;;;;;;9.36;55.53;99169.81;5086426;28;20038;-94
2022/04/19 09:41:15;;;;;;;9.23;4.00;;;;;;;9.33;58.49;99156.06;5085620;28;20042;-91
2022/04/19 09:43:40;;;;;;;8.73;7.82;;;;;;;9.34;60.19;99165.75;5063486;28;20028;-91
2022/04/19 09:46:12;;;;;;;5.72;3.60;;;;;;;9.04;59.37;99146.59;5066725;28;20024;-94
2022/04/19 09:48:39;;;;;;;7.75;4.65;;;;;;;9.15;59.15;99143.94;5069383;28;20039;-94
2022/04/19 09:51:12;;;;;;;5.55;4.80;;;;;;;9.26;56.87;99143.69;5070485;28;20039;-92
2022/04/19 09:53:53;;;;;;;5.32;4.03;;;;;;;9.46;53.62;99152.88;5106015;28;20030;-96
2022/04/19 09:56:34;;;;;;;;;;;;;;;;;;;;;
2022/04/19 09:59:04;;;;;;;6.50;4.53;;;;;;;9.20;57.81;99154.72;5095262;28;20055;-96
2022/04/19 10:11:00;;;;;;;6.45;3.30;;;;;;;9.61;54.21;99125.22;5091983;28;20054;-93
2022/04/19 10:13:46;;;;;;;4.72;3.58;;;;;;;9.63;52.53;99145.38;5100134;28;20053;-91
2022/04/19 10:16:15;;;;;;;4.03;3.10;;;;;;;9.61;53.62;99158.28;5066376;28;20085;-92
2022/04/19 10:18:51;;;;;;;10.07;6.53;;;;;;;9.62;52.90;99159.88;5064084;28;20026;-92
2022/04/19 10:25:46;;;;;;;;;;;;;;;;;;;;;
2022/04/19 10:28:26;;;;;;;6.57;4.43;;;;;;;9.55;56.45;99164.72;5078961;28;20150;-90
2022/04/19 10:30:55;;;;;;;5.22;3.88;;;;;;;9.17;56.27;99128.34;5058012;28;20024;-95
2022/04/19 10:33:49;;;;;;;4.47;3.50;;;;;;;9.45;55.87;99162.81;5027170;28;20127;-94
2022/04/19 10:36:20;;;;;;;7.30;4.97;;;;;;;9.35;58.60;99168.16;5014626;28;20028;-95
2022/04/19 10:39:20;;;;;;;8.25;4.20;;;;;;;9.26;59.33;99167.88;5047437;28;20025;-93
2022/04/19 10:41:55;;;;;;;5.55;3.65;;;;;;;9.03;58.86;99138.81;5031105;28;20009;-95
2022/04/19 10:47:54;;;;;;;5.53;3.85;;;;;;;8.98;59.08;99168.31;4986793;28;20037;-96
2022/04/19 10:50:59;;;;;;;5.25;3.20;;;;;;;8.77;57.08;99175.50;5029418;28;20033;-96
2022/04/19 10:56:34;;;;;;;;;;;;;;;;;;;;;
2022/04/19 10:59:20;;;;;;;7.63;4.63;;;;;;;9.14;56.39;99142.34;5048864;28;20122;-92
2022/04/19 11:01:49;;;;;;;3.95;3.03;;;;;;;9.43;56.08;99167.66;5030548;28;20059;-95
2022/04/19 11:04:38;;;;;;;4.65;2.85;;;;;;;9.34;56.06;99139.69;5030078;28;20029;-94
2022/04/19 11:07:43;;;;;;;4.47;3.10;;;;;;;9.44;57.10;99153.16;5057001;28;20139;-93
2022/04/19 11:10:08;;;;;;;5.25;3.13;;;;;;;9.56;55.91;99150.19;5064554;28;20046;-91
2022/04/19 11:13:01;;;;;;;6.22;3.97;;;;;;;10.00;57.91;99178.44;5039198;28;20024;-96
2022/04/19 11:15:58;;;;;;;;;;;;;;;9.96;57.89;99177.38;5050951;28;20479;-95
2022/04/19 11:19:25;;;;;;;4.40;2.85;;;;;;;9.65;58.54;99145.91;5045675;28;19908;-95
2022/04/19 11:22:03;;;;;;;4.60;3.20;;;;;;;10.09;55.51;99172.28;5055313;28;20021;-96
2022/04/19 11:25:04;;;;;;;6.68;2.97;;;;;;;10.11;53.44;99177.38;5048586;28;20037;-93
2022/04/19 11:27:54;;;;;;;13.38;7.72;;;;;;;10.17;54.42;99173.63;5063270;28;20028;-91
2022/04/19 11:30:35;;;;;;;8.50;5.05;;;;;;;10.29;50.49;99155.34;5065137;28;20024;-94
2022/04/19 11:33:11;;;;;;;3.58;2.40;;;;;;;10.43;52.39;99166.31;5085252;28;20001;-96
2022/04/19 11:36:04;;;;;;;3.65;2.53;;;;;;;10.37;51.57;99170.09;5053637;28;20027;-95
2022/04/19 11:52:17;;;;;;;4.28;3.13;;;;;;;10.58;51.65;99168.16;5085381;28;20036;-91
2022/04/19 11:54:49;;;;;;;4.15;2.80;;;;;;;10.23;50.96;99156.38;5052119;28;20112;-94
2022/04/19 11:57:14;;;;;;;3.80;2.47;;;;;;;10.24;52.85;99136.47;5055938;28;20025;-95
2022/04/19 11:59:55;;;;;;;;;;;;;;;;;;;;;
2022/04/19 12:02:50;;;;;;;10.60;7.70;;;;;;;10.72;50.59;99142.28;5465705;22;20111;-96
2022/04/19 12:05:36;;;;;;;4.88;3.97;;;;;;;10.80;49.79;99135.53;5087323;28;20040;-93
2022/04/19 12:08:02;;;;;;;8.02;4.53;;;;;;;10.69;49.36;99123.19;5069984;28;20036;-90
2022/04/19 12:10:28;;;;;;;6.60;4.35;;;;;;;10.87;51.93;99121.75;5068742;28;20039;-92
2022/04/19 12:12:53;;;;;;;4.95;3.60;;;;;;;11.05;50.43;99123.81;5092547;28;20493;-90
2022/04/19 12:15:41;;;;;;;6.57;4.78;;;;;;;11.58;49.36;99154.78;5084320;28;20036;-91
2022/04/19 12:18:16;;;;;;;4.90;3.50;;;;;;;11.55;50.73;99125.69;5088823;28;20446;-94
2022/04/19 12:20:45;;;;;;;4.88;3.55;;;;;;;11.69;52.51;99143.63;5078234;28;20095;-94
2022/04/19 12:23:20;;;;;;;4.75;3.70;;;;;;;11.52;49.51;99132.44;5074915;28;20518;-94
2022/04/19 12:26:15;;;;;;;4.18;3.20;;;;;;;11.61;47.01;99146.94;5074267;28;20031;-92
2022/04/19 12:29:25;;;;;;;4.03;2.70;;;;;;;11.21;48.71;99121.06;5093440;28;20027;-93
2022/04/19 12:32:11;;;;;;;5.32;4.20;;;;;;;10.96;50.64;99121.97;5105988;28;20393;-95
2022/04/19 12:35:40;;;;;;;4.38;3.25;;;;;;;11.04;53.64;99134.88;5111312;28;20035;-94
2022/04/19 12:40:43;;;;;;;4.95;3.40;;;;;;;10.64;55.01;99101.66;5106716;28;20085;-95
2022/04/19 12:43:18;;;;;;;4.60;3.17;;;;;;;10.63;54.15;99092.78;5055429;28;20028;-96
2022/04/19 12:45:50;;;;;;;3.63;2.47;;;;;;;10.57;51.82;99098.47;5012404;28;20132;-94
2022/04/19 12:48:20;;;;;;;4.20;2.97;;;;;;;10.46;52.54;99109.28;5027119;28;20033;-93
2022/04/19 12:50:59;;;;;;;4.22;3.22;;;;;;;10.38;54.91;99096.38;5008502;28;20021;-91
2022/04/19 12:53:30;;;;;;;4.10;2.83;;;;;;;10.11;54.38;99081.34;5028402;28;20025;-95
2022/04/19 12:56:27;;;;;;;3.17;2.20;;;;;;;10.65;51.62;99122.13;5024719;28;20033;-91
2022/04/19 12:58:53;;;;;;;4.50;2.58;;;;;;;10.64;50.07;99091.69;5003379;28;20041;-93
2022/04/19 13:01:20;;;;;;;2.70;2.03;;;;;;;10.35;50.03;99090.72;5011832;28;20037;-93
2022/04/19 13:03:52;;;;;;;4.40;2.72;;;;;;;10.55;52.05;99097.94;5009009;28;20040;-91